Time;durP1;ratioP1;P1;durP2;ratioP2;P2;SDS_P1;SDS_P2;PMS_P1;PMS_P2;Temp;Humidity;BMP_temperature;BMP_pressure;BME280_temperature;BME280_humidity;BME280_pressure;Samples;Min_cycle;Max_cycle;Signal;HPM_P1;HPM_P2
2022/06/17 00:01:59;;;;;;;0.80;0.65;;;21.80;88.20;;;;;;5046346;28;20029;-72
2022/06/17 00:04:26;;;;;;;1.00;0.80;;;22.00;87.80;;;;;;5039610;28;20036;-75
2022/06/17 00:07:13;;;;;;;1.27;0.98;;;22.00;87.10;;;;;;5047338;28;20031;-75
2022/06/17 00:09:41;;;;;;;1.77;1.00;;;22.10;87.40;;;;;;5046692;28;20029;-77
2022/06/17 00:12:14;;;;;;;1.10;0.70;;;22.30;87.30;;;;;;5036406;28;20041;-75
2022/06/17 00:17:27;;;;;;;1.00;0.50;;;22.60;87.20;;;;;;5036550;28;20052;-72
2022/06/17 00:19:54;;;;;;;1.45;0.70;;;22.90;86.60;;;;;;5044619;28;20090;-75
2022/06/17 00:22:21;;;;;;;1.10;0.60;;;23.10;86.70;;;;;;5041509;28;20127;-77
2022/06/17 00:24:51;;;;;;;1.27;0.75;;;23.00;85.10;;;;;;5039261;28;20032;-72
2022/06/17 00:27:18;;;;;;;2.63;0.63;;;23.00;85.90;;;;;;5061362;28;20162;-72
2022/06/17 00:29:46;;;;;;;0.60;0.40;;;23.50;86.00;;;;;;5042176;28;20025;-75
2022/06/17 00:32:13;;;;;;;2.22;0.45;;;23.50;85.50;;;;;;5047255;28;20037;-76
2022/06/17 00:34:41;;;;;;;0.65;0.30;;;23.50;85.60;;;;;;5040398;28;20420;-76
2022/06/17 00:37:13;;;;;;;0.52;0.30;;;23.80;85.70;;;;;;5045681;28;20032;-75
2022/06/17 00:39:41;;;;;;;0.40;0.22;;;24.10;84.20;;;;;;5046096;28;20037;-75
2022/06/17 00:42:13;;;;;;;2.88;0.60;;;24.10;84.00;;;;;;5045835;28;20108;-75
2022/06/17 00:45:04;;;;;;;0.70;0.30;;;24.20;84.40;;;;;;5045779;28;20086;-74
2022/06/17 00:47:43;;;;;;;0.90;0.40;;;24.70;84.10;;;;;;5038494;28;20367;-78
2022/06/17 00:50:20;;;;;;;1.10;0.40;;;25.00;82.80;;;;;;5045912;28;21193;-77
2022/06/17 00:53:05;;;;;;;0.93;0.30;;;25.20;83.40;;;;;;5051083;28;20044;-77
2022/06/17 00:55:33;;;;;;;1.90;0.85;;;25.50;82.30;;;;;;5046317;28;20033;-75
2022/06/17 00:58:05;;;;;;;0.70;0.32;;;25.60;82.70;;;;;;5041657;28;20024;-77
2022/06/17 01:00:32;;;;;;;2.05;0.40;;;25.50;82.50;;;;;;5047402;28;20028;-73
2022/06/17 01:03:04;;;;;;;2.63;0.10;;;25.80;82.20;;;;;;5037757;28;20111;-74
2022/06/17 01:06:05;;;;;;;0.03;0.00;;;26.40;81.10;;;;;;5041373;28;20071;-75
2022/06/17 01:11:28;;;;;;;3.42;0.00;;;26.50;79.10;;;;;;5047802;28;20101;-77
2022/06/17 01:13:56;;;;;;;0.00;0.00;;;26.60;78.00;;;;;;5026005;28;20483;-78
2022/06/17 01:16:34;;;;;;;1.77;0.05;;;26.60;77.50;;;;;;5048435;28;20022;-76
2022/06/17 01:19:34;;;;;;;0.10;0.00;;;26.60;78.80;;;;;;5039361;28;20114;-77
2022/06/17 01:22:25;;;;;;;0.00;0.00;;;26.70;77.50;;;;;;5049355;28;20069;-76
2022/06/17 01:25:14;;;;;;;0.00;0.00;;;27.00;77.20;;;;;;5041348;28;20474;-79
2022/06/17 01:27:51;;;;;;;0.00;0.00;;;27.40;75.40;;;;;;5044060;28;20205;-76
2022/06/17 01:30:28;;;;;;;0.00;0.00;;;27.70;76.10;;;;;;5041340;28;20148;-77
2022/06/17 01:33:07;;;;;;;0.30;0.10;;;27.60;75.40;;;;;;5050871;28;20036;-76
2022/06/17 01:35:44;;;;;;;0.10;0.00;;;27.60;74.70;;;;;;5045186;28;20016;-77
2022/06/17 01:38:13;;;;;;;0.93;0.10;;;27.40;75.50;;;;;;5042958;28;20087;-78
2022/06/17 01:40:41;;;;;;;0.03;0.00;;;27.60;75.80;;;;;;5046170;28;20016;-72
2022/06/17 01:43:12;;;;;;;0.00;0.00;;;27.90;75.50;;;;;;5039135;28;20051;-73
2022/06/17 01:45:53;;;;;;;0.00;0.00;;;28.10;75.00;;;;;;5046755;28;20028;-77
2022/06/17 01:48:23;;;;;;;1.38;0.10;;;28.10;76.50;;;;;;5042233;28;20375;-76
2022/06/17 01:50:54;;;;;;;0.05;0.03;;;28.10;73.90;;;;;;5042841;28;20489;-74
2022/06/17 01:53:27;;;;;;;0.55;0.00;;;27.90;74.90;;;;;;5050453;28;21652;-75
2022/06/17 01:56:12;;;;;;;0.75;0.10;;;27.80;74.00;;;;;;5046235;28;20504;-77
2022/06/17 01:59:22;;;;;;;0.05;0.05;;;28.00;74.70;;;;;;5032730;28;20033;-77
2022/06/17 02:01:54;;;;;;;0.43;0.00;;;28.20;74.10;;;;;;4999721;28;20097;-81
2022/06/17 02:04:27;;;;;;;0.05;0.00;;;28.20;73.70;;;;;;5044300;28;20108;-73
2022/06/17 02:07:17;;;;;;;0.10;0.10;;;27.90;73.70;;;;;;5047100;28;20052;-76
2022/06/17 02:09:46;;;;;;;2.47;0.03;;;27.90;74.50;;;;;;5039465;28;20060;-81
2022/06/17 02:12:17;;;;;;;0.08;0.08;;;28.20;74.40;;;;;;5045887;28;20017;-76
2022/06/17 02:14:46;;;;;;;0.20;0.00;;;28.40;73.60;;;;;;5047802;28;20085;-80
2022/06/17 02:17:14;;;;;;;0.10;0.10;;;28.40;71.80;;;;;;5055492;28;20060;-79
2022/06/17 02:19:43;;;;;;;0.00;0.00;;;28.20;74.60;;;;;;5043592;28;20031;-75
2022/06/17 02:22:23;;;;;;;0.00;0.00;;;28.40;73.00;;;;;;5045023;28;20469;-77
2022/06/17 02:24:53;;;;;;;0.10;0.08;;;28.40;71.70;;;;;;5047316;28;20388;-77
2022/06/17 02:27:22;;;;;;;0.30;0.15;;;28.10;71.80;;;;;;5056315;28;20187;-75
2022/06/17 02:29:51;;;;;;;0.10;0.10;;;28.00;72.20;;;;;;5049121;28;20108;-77
2022/06/17 02:32:20;;;;;;;0.63;0.15;;;28.00;72.10;;;;;;5050868;28;20075;-78
2022/06/17 02:35:27;;;;;;;0.10;0.10;;;28.00;73.20;;;;;;5041969;28;20044;-75
2022/06/17 02:37:55;;;;;;;0.32;0.10;;;27.70;72.40;;;;;;5049157;28;20045;-75
2022/06/17 02:40:25;;;;;;;0.52;0.10;;;27.60;73.30;;;;;;5049302;28;20032;-77
2022/06/17 02:42:54;;;;;;;0.10;0.00;;;27.50;73.60;;;;;;5054526;28;20159;-75
2022/06/17 02:45:25;;;;;;;0.15;0.10;;;27.50;74.00;;;;;;5048407;28;20144;-76
2022/06/17 02:47:53;;;;;;;0.00;0.00;;;27.20;73.30;;;;;;5046858;28;20041;-76
2022/06/17 02:50:26;;;;;;;0.13;0.03;;;27.00;73.50;;;;;;5048774;28;20040;-73
2022/06/17 02:52:57;;;;;;;0.15;0.10;;;26.70;74.20;;;;;;5051392;28;20033;-78
2022/06/17 02:55:33;;;;;;;0.15;0.10;;;26.70;75.40;;;;;;5046644;28;20051;-73
2022/06/17 02:58:13;;;;;;;0.35;0.10;;;26.60;74.60;;;;;;5046325;28;20033;-77
2022/06/17 03:00:41;;;;;;;1.27;0.15;;;26.30;74.30;;;;;;5049526;28;20029;-71
2022/06/17 03:03:12;;;;;;;0.20;0.10;;;26.10;75.00;;;;;;5048964;28;20503;-72
2022/06/17 03:05:43;;;;;;;0.20;0.08;;;26.00;74.70;;;;;;5058644;28;20070;-76
2022/06/17 03:08:23;;;;;;;0.03;0.00;;;25.60;74.60;;;;;;5046494;28;20061;-75
2022/06/17 03:10:56;;;;;;;0.10;0.00;;;25.30;75.70;;;;;;5050401;28;20028;-75
2022/06/17 03:13:37;;;;;;;0.85;0.10;;;25.00;76.30;;;;;;5059588;28;20121;-75
2022/06/17 03:16:08;;;;;;;0.00;0.00;;;24.70;76.50;;;;;;5057637;28;20124;-74
2022/06/17 03:18:35;;;;;;;0.20;0.10;;;24.60;78.00;;;;;;5049479;28;21739;-74
2022/06/17 03:21:05;;;;;;;0.30;0.10;;;24.50;76.60;;;;;;5061869;28;20079;-74
2022/06/17 03:24:12;;;;;;;0.10;0.10;;;24.20;77.10;;;;;;5047385;28;20136;-74
2022/06/17 03:27:04;;;;;;;0.63;0.10;;;23.90;77.40;;;;;;5039998;28;20040;-75
2022/06/17 03:29:33;;;;;;;0.25;0.10;;;23.70;79.20;;;;;;5056275;28;20092;-77
2022/06/17 03:32:07;;;;;;;0.82;0.00;;;23.20;78.90;;;;;;5046826;28;20045;-74
2022/06/17 03:34:55;;;;;;;0.10;0.10;;;22.70;79.70;;;;;;5052460;28;20082;-75
2022/06/17 03:37:39;;;;;;;0.10;0.10;;;22.20;80.90;;;;;;5039276;28;20029;-76
2022/06/17 03:40:21;;;;;;;0.20;0.10;;;21.80;81.80;;;;;;5038366;28;20040;-78
2022/06/17 03:42:51;;;;;;;1.95;0.10;;;21.40;82.80;;;;;;5060395;28;20127;-75
2022/06/17 03:45:25;;;;;;;0.17;0.00;;;21.10;83.10;;;;;;5051684;28;20345;-77
2022/06/17 03:48:11;;;;;;;0.13;0.10;;;20.80;83.60;;;;;;5049753;28;20025;-81
2022/06/17 03:50:44;;;;;;;0.85;0.22;;;20.70;84.50;;;;;;5040847;28;20195;-76
2022/06/17 03:53:26;;;;;;;0.10;0.10;;;20.60;85.10;;;;;;5049499;28;20179;-74
2022/06/17 03:55:56;;;;;;;0.10;0.10;;;20.60;85.50;;;;;;5051700;28;20025;-77
2022/06/17 03:58:24;;;;;;;0.00;0.00;;;20.50;85.50;;;;;;5046261;28;20032;-78
2022/06/17 04:01:02;;;;;;;0.25;0.10;;;20.40;85.80;;;;;;5058879;28;20573;-79
2022/06/17 04:03:37;;;;;;;0.20;0.10;;;20.30;85.50;;;;;;5048841;28;20039;-79
2022/06/17 04:06:18;;;;;;;2.00;0.30;;;20.30;85.60;;;;;;5051653;28;20064;-77
2022/06/17 04:08:57;;;;;;;0.20;0.10;;;20.30;86.60;;;;;;5051892;28;20036;-79
2022/06/17 04:11:29;;;;;;;0.38;0.10;;;20.40;86.00;;;;;;5044136;28;20055;-77
2022/06/17 04:13:59;;;;;;;0.17;0.10;;;20.30;86.60;;;;;;5038002;28;20033;-77
2022/06/17 04:16:53;;;;;;;0.13;0.10;;;20.30;86.20;;;;;;5055355;28;20139;-76
2022/06/17 04:19:24;;;;;;;0.05;0.05;;;20.20;86.70;;;;;;5046292;28;20058;-77
2022/06/17 04:21:57;;;;;;;0.00;0.00;;;20.20;87.40;;;;;;5052666;28;20396;-75
2022/06/17 04:24:28;;;;;;;0.00;0.00;;;20.10;87.40;;;;;;5056148;28;20089;-79
2022/06/17 04:27:03;;;;;;;0.00;0.00;;;20.10;87.40;;;;;;5053404;28;20029;-76
2022/06/17 04:29:47;;;;;;;1.00;0.10;;;20.10;87.80;;;;;;5053131;28;20037;-78
2022/06/17 04:32:31;;;;;;;0.03;0.00;;;20.20;87.60;;;;;;5052060;28;20045;-76
2022/06/17 04:34:59;;;;;;;0.47;0.10;;;20.30;87.30;;;;;;5035308;28;20478;-75
2022/06/17 04:37:27;;;;;;;1.08;0.22;;;20.40;87.20;;;;;;5042629;28;20041;-75
2022/06/17 04:39:57;;;;;;;0.17;0.10;;;20.50;86.50;;;;;;5050355;28;20361;-78
2022/06/17 04:42:46;;;;;;;0.20;0.10;;;20.50;86.70;;;;;;5063793;28;20097;-76
2022/06/17 04:45:24;;;;;;;1.02;0.80;;;20.50;86.40;;;;;;5051364;28;20075;-78
2022/06/17 04:47:52;;;;;;;1.17;0.43;;;20.20;86.80;;;;;;5054012;28;20024;-77
2022/06/17 04:50:24;;;;;;;0.38;0.20;;;20.10;86.80;;;;;;5045769;28;20028;-77
2022/06/17 04:52:54;;;;;;;0.13;0.03;;;20.00;87.30;;;;;;5042285;28;20056;-74
2022/06/17 04:55:35;;;;;;;0.10;0.10;;;19.80;87.30;;;;;;5030742;28;20611;-74
2022/06/17 04:58:03;;;;;;;0.00;0.00;;;19.70;87.40;;;;;;5037026;28;20056;-77
2022/06/17 05:00:30;;;;;;;0.17;0.10;;;19.60;88.00;;;;;;5052829;28;20063;-72
2022/06/17 05:02:58;;;;;;;0.10;0.10;;;19.60;88.10;;;;;;5042273;28;20149;-74
2022/06/17 05:05:33;;;;;;;1.35;0.10;;;19.50;88.20;;;;;;5045725;28;20466;-75
2022/06/17 05:08:03;;;;;;;4.03;0.10;;;19.50;88.30;;;;;;5043090;28;20456;-75
2022/06/17 05:10:37;;;;;;;1.00;0.10;;;19.60;88.10;;;;;;5040876;28;20104;-74
2022/06/17 05:13:32;;;;;;;0.13;0.00;;;19.60;87.80;;;;;;5044138;28;20518;-72
2022/06/17 05:16:00;;;;;;;0.00;0.00;;;19.70;87.80;;;;;;5045569;28;20470;-76
2022/06/17 05:18:27;;;;;;;0.00;0.00;;;19.70;87.30;;;;;;5051482;28;20037;-71
2022/06/17 05:20:55;;;;;;;0.55;0.10;;;19.70;87.10;;;;;;5050675;28;20032;-77
2022/06/17 05:23:24;;;;;;;0.17;0.00;;;19.80;87.30;;;;;;5046454;28;20047;-71
2022/06/17 05:25:53;;;;;;;0.10;0.00;;;19.80;87.60;;;;;;5050211;28;20064;-74
2022/06/17 05:28:21;;;;;;;0.60;0.00;;;19.70;87.70;;;;;;5047993;28;20033;-76
2022/06/17 05:30:52;;;;;;;0.10;0.00;;;19.70;87.90;;;;;;5039833;28;20036;-80
2022/06/17 05:33:21;;;;;;;0.70;0.20;;;19.70;88.00;;;;;;5059568;28;20513;-76
2022/06/17 05:35:49;;;;;;;0.10;0.10;;;19.70;88.00;;;;;;5046513;28;20025;-77
2022/06/17 05:38:17;;;;;;;0.40;0.10;;;19.50;88.40;;;;;;5041155;28;20329;-76
2022/06/17 05:40:44;;;;;;;0.88;0.30;;;19.50;88.60;;;;;;5046317;28;20033;-73
2022/06/17 05:43:13;;;;;;;1.60;0.20;;;19.30;88.80;;;;;;5045291;28;20036;-76
2022/06/17 05:45:40;;;;;;;1.98;0.38;;;19.30;89.50;;;;;;5039909;28;20023;-75
2022/06/17 05:48:09;;;;;;;0.43;0.40;;;19.10;89.30;;;;;;5048686;28;20024;-76
2022/06/17 05:50:36;;;;;;;0.45;0.25;;;19.00;90.00;;;;;;5044879;28;20029;-76
2022/06/17 05:53:08;;;;;;;0.52;0.30;;;18.90;90.20;;;;;;5051618;28;20360;-75
2022/06/17 05:55:37;;;;;;;0.95;0.40;;;18.70;90.50;;;;;;5065044;28;20042;-76
2022/06/17 05:58:05;;;;;;;3.38;0.65;;;18.60;90.80;;;;;;5049390;28;20041;-78
2022/06/17 06:00:34;;;;;;;3.65;2.40;;;18.50;90.90;;;;;;5056966;28;20368;-78
2022/06/17 06:03:06;;;;;;;5.95;4.70;;;18.50;91.10;;;;;;5060107;28;20099;-79
2022/06/17 06:05:35;;;;;;;3.05;2.75;;;18.30;91.10;;;;;;5057802;28;20029;-79
2022/06/17 06:08:02;;;;;;;8.20;6.95;;;18.30;91.20;;;;;;5057699;28;20029;-78
2022/06/17 06:10:30;;;;;;;6.93;2.35;;;18.30;91.20;;;;;;5051586;28;20036;-78
2022/06/17 06:12:57;;;;;;;1.13;0.75;;;18.30;91.10;;;;;;5053128;28;20450;-77
2022/06/17 06:15:33;;;;;;;0.65;0.50;;;18.30;91.20;;;;;;5049538;28;20083;-76
2022/06/17 06:18:00;;;;;;;;;;;18.40;91.40;;;;;;5052480;28;20043;-77
2022/06/17 06:20:28;;;;;;;1.58;0.70;;;18.60;91.60;;;;;;5045555;28;20306;-76
2022/06/17 06:22:55;;;;;;;2.08;1.48;;;18.80;91.00;;;;;;5070835;28;20033;-80
2022/06/17 06:25:23;;;;;;;1.55;1.40;;;18.80;90.80;;;;;;5051943;28;20059;-77
2022/06/17 06:27:50;;;;;;;1.98;1.30;;;18.80;90.90;;;;;;5063172;28;20024;-73
2022/06/17 06:30:24;;;;;;;3.08;1.45;;;18.80;90.70;;;;;;5047804;28;20400;-76
2022/06/17 06:32:58;;;;;;;2.83;1.83;;;18.70;90.90;;;;;;5044304;28;20137;-74
2022/06/17 06:35:32;;;;;;;2.20;0.93;;;18.50;90.90;;;;;;5051225;28;20033;-76
2022/06/17 06:38:00;;;;;;;1.60;1.20;;;18.30;91.30;;;;;;5051288;28;20040;-75
2022/06/17 06:40:28;;;;;;;0.98;0.93;;;18.10;91.40;;;;;;5056736;28;20437;-77
2022/06/17 06:42:56;;;;;;;1.83;1.13;;;17.90;91.70;;;;;;5068589;28;20036;-80
2022/06/17 06:45:35;;;;;;;1.40;1.30;;;17.70;92.10;;;;;;5054400;28;20028;-79
2022/06/17 06:48:08;;;;;;;3.22;1.08;;;17.50;92.40;;;;;;5054352;28;20430;-77
2022/06/17 06:50:37;;;;;;;1.77;1.67;;;17.30;92.60;;;;;;5037716;28;20143;-76
2022/06/17 06:53:05;;;;;;;2.10;1.52;;;17.10;92.60;;;;;;5032746;28;20178;-75
2022/06/17 06:55:34;;;;;;;1.50;1.38;;;16.90;92.90;;;;;;5032387;28;20026;-75
2022/06/17 06:58:14;;;;;;;4.45;3.03;;;16.80;93.10;;;;;;5031203;28;20621;-76
2022/06/17 07:00:44;;;;;;;5.05;3.05;;;16.70;93.30;;;;;;5032266;28;20072;-73
2022/06/17 07:03:12;;;;;;;6.93;4.55;;;16.60;93.50;;;;;;5037749;28;20033;-77
2022/06/17 07:05:43;;;;;;;12.43;6.05;;;16.60;93.70;;;;;;5053455;28;20025;-78
2022/06/17 07:08:13;;;;;;;13.57;7.07;;;16.60;93.80;;;;;;5038845;28;20033;-78
2022/06/17 07:10:41;;;;;;;14.20;6.25;;;16.60;93.90;;;;;;5057664;28;20024;-74
2022/06/17 07:13:09;;;;;;;9.70;5.13;;;16.50;93.80;;;;;;5048660;28;20033;-75
2022/06/17 07:15:39;;;;;;;10.43;6.18;;;16.60;93.70;;;;;;5045021;28;20029;-76
2022/06/17 07:18:19;;;;;;;8.18;4.03;;;16.50;93.70;;;;;;5044094;28;20036;-76
2022/06/17 07:20:52;;;;;;;7.78;4.07;;;16.50;93.70;;;;;;5032935;28;20041;-77
2022/06/17 07:23:22;;;;;;;7.72;4.28;;;16.50;93.80;;;;;;5035483;28;20490;-76
2022/06/17 07:25:50;;;;;;;7.10;3.35;;;16.50;93.70;;;;;;5037576;28;20047;-75
2022/06/17 07:28:21;;;;;;;6.80;3.67;;;16.60;93.90;;;;;;5033128;28;20036;-76
2022/06/17 07:30:50;;;;;;;6.82;2.28;;;16.50;94.00;;;;;;5031461;28;20385;-73
2022/06/17 07:33:19;;;;;;;6.20;1.85;;;16.60;94.00;;;;;;5029207;28;20049;-77
2022/06/17 07:35:48;;;;;;;2.92;1.48;;;16.50;93.70;;;;;;5030360;28;20067;-76
2022/06/17 07:41:13;;;;;;;3.95;2.00;;;16.40;93.80;;;;;;5034783;28;20059;-77
2022/06/17 07:43:41;;;;;;;11.15;4.22;;;16.30;93.80;;;;;;5033749;28;20486;-75
2022/06/17 07:46:10;;;;;;;5.93;3.60;;;16.10;94.00;;;;;;5034024;28;20033;-76
2022/06/17 07:48:42;;;;;;;5.03;2.70;;;16.00;94.20;;;;;;5046695;28;20040;-76
2022/06/17 07:51:10;;;;;;;4.30;3.20;;;15.90;94.30;;;;;;5044830;28;20449;-74
2022/06/17 07:53:41;;;;;;;5.03;3.63;;;15.80;94.60;;;;;;5031951;28;20041;-75
2022/06/17 07:56:13;;;;;;;4.10;2.70;;;15.60;94.70;;;;;;5031641;28;20513;-73
2022/06/17 07:58:40;;;;;;;4.25;1.90;;;15.40;94.70;;;;;;5030242;28;20025;-75
2022/06/17 08:01:09;;;;;;;3.67;1.85;;;15.30;95.00;;;;;;5030985;28;20040;-71
2022/06/17 08:03:36;;;;;;;7.75;1.85;;;15.20;95.30;;;;;;5028666;28;20086;-75
2022/06/17 08:06:04;;;;;;;2.92;1.38;;;15.10;95.30;;;;;;5031393;28;20083;-75
2022/06/17 08:08:33;;;;;;;2.22;1.70;;;15.00;95.50;;;;;;5032923;28;20036;-73
2022/06/17 08:11:02;;;;;;;2.80;1.23;;;14.90;95.60;;;;;;5036908;28;20326;-73
2022/06/17 08:13:29;;;;;;;6.03;1.65;;;14.80;95.70;;;;;;5034707;28;20056;-73
2022/06/17 08:15:59;;;;;;;2.35;1.70;;;14.80;95.90;;;;;;5030094;28;20538;-74
2022/06/17 08:18:27;;;;;;;2.00;1.52;;;14.70;96.00;;;;;;5033932;28;20079;-74
2022/06/17 08:20:54;;;;;;;4.03;2.65;;;14.60;96.20;;;;;;5030734;28;20032;-73
2022/06/17 08:23:22;;;;;;;3.90;3.03;;;14.50;96.30;;;;;;5031246;28;20037;-74
2022/06/17 08:25:50;;;;;;;10.18;4.15;;;14.40;96.50;;;;;;5033463;28;20029;-73
2022/06/17 08:28:19;;;;;;;9.43;4.10;;;14.40;96.70;;;;;;5030191;28;20033;-73
2022/06/17 08:30:51;;;;;;;7.53;3.65;;;14.30;96.70;;;;;;5031467;28;20059;-73
2022/06/17 08:33:25;;;;;;;7.03;3.17;;;14.20;96.90;;;;;;5027364;28;20128;-74
2022/06/17 08:35:54;;;;;;;4.43;3.33;;;14.20;97.10;;;;;;5033982;28;22907;-75
2022/06/17 08:38:29;;;;;;;8.32;3.20;;;14.10;97.30;;;;;;5033181;28;20037;-75
2022/06/17 08:40:58;;;;;;;5.85;3.15;;;14.10;97.60;;;;;;5030595;28;20109;-77
2022/06/17 08:44:02;;;;;;;5.07;3.40;;;14.10;97.70;;;;;;5030251;28;20407;-75
2022/06/17 08:46:41;;;;;;;7.55;3.42;;;14.00;97.80;;;;;;5032121;28;20029;-77
2022/06/17 08:49:33;;;;;;;4.50;2.58;;;14.00;97.80;;;;;;5030532;28;20045;-77
2022/06/17 08:52:15;;;;;;;4.03;2.22;;;13.90;97.90;;;;;;5030690;28;20049;-78
2022/06/17 08:54:45;;;;;;;2.05;1.63;;;13.90;97.90;;;;;;5030065;28;20471;-77
2022/06/17 08:58:09;;;;;;;5.22;1.63;;;13.90;97.90;;;;;;5030356;28;20032;-77
2022/06/17 09:00:46;;;;;;;3.50;1.23;;;13.80;98.10;;;;;;4977896;28;20072;-74
2022/06/17 09:03:26;;;;;;;1.60;0.90;;;13.80;98.20;;;;;;4980132;28;20044;-75
2022/06/17 09:06:35;;;;;;;1.70;0.98;;;13.70;98.30;;;;;;5010946;28;20132;-76
2022/06/17 09:09:12;;;;;;;1.33;0.90;;;13.60;98.20;;;;;;5028947;28;20025;-74
2022/06/17 09:11:57;;;;;;;2.60;1.15;;;13.60;98.50;;;;;;5033190;28;20036;-74
2022/06/17 09:14:41;;;;;;;2.38;0.95;;;13.50;98.40;;;;;;5032921;28;20037;-74
2022/06/17 09:17:23;;;;;;;3.03;0.77;;;13.50;98.60;;;;;;5030140;28;20109;-75
2022/06/17 09:19:58;;;;;;;5.43;3.70;;;13.40;98.50;;;;;;5031545;28;20049;-75
2022/06/17 09:22:40;;;;;;;5.53;3.13;;;13.40;98.60;;;;;;5034063;28;20029;-76
2022/06/17 09:25:11;;;;;;;4.32;3.40;;;13.30;98.80;;;;;;5030684;28;20099;-74
2022/06/17 09:27:43;;;;;;;5.25;2.75;;;13.20;98.90;;;;;;5038970;28;20033;-73
2022/06/17 09:30:16;;;;;;;5.63;2.72;;;13.10;99.40;;;;;;5030813;28;20052;-74
2022/06/17 09:32:46;;;;;;;6.70;2.35;;;13.00;99.70;;;;;;5028973;28;20051;-72
2022/06/17 09:35:19;;;;;;;3.38;2.30;;;12.90;99.90;;;;;;5028968;28;20040;-74
2022/06/17 09:37:50;;;;;;;4.57;2.45;;;12.70;99.90;;;;;;5034330;28;20018;-75
2022/06/17 09:40:36;;;;;;;5.13;2.20;;;12.70;99.90;;;;;;5028055;28;20034;-74
2022/06/17 09:43:32;;;;;;;5.68;2.80;;;12.60;99.90;;;;;;5029850;28;20047;-75
2022/06/17 09:46:28;;;;;;;5.35;2.78;;;12.40;99.90;;;;;;5038047;28;20025;-74
2022/06/17 09:49:20;;;;;;;7.97;3.97;;;12.30;99.90;;;;;;5030018;28;20038;-76
2022/06/17 09:52:01;;;;;;;20.50;12.13;;;12.30;99.90;;;;;;5029873;28;20078;-74
2022/06/17 09:54:32;;;;;;;23.42;12.57;;;12.20;99.90;;;;;;5031601;28;20037;-73
2022/06/17 09:57:36;;;;;;;16.40;8.80;;;12.20;99.90;;;;;;5029370;28;20029;-74
2022/06/17 10:00:10;;;;;;;11.68;5.88;;;12.30;99.90;;;;;;5030752;28;20021;-74
2022/06/17 10:02:58;;;;;;;11.43;6.22;;;12.30;99.90;;;;;;5037106;28;20417;-76
2022/06/17 10:05:46;;;;;;;10.90;6.03;;;12.40;99.90;;;;;;5029616;28;20029;-73
2022/06/17 10:08:20;;;;;;;5.72;2.45;;;12.30;99.90;;;;;;5031053;28;20369;-73
2022/06/17 10:10:50;;;;;;;2.25;1.50;;;12.30;99.90;;;;;;5032753;28;20025;-74
2022/06/17 10:13:38;;;;;;;1.75;1.15;;;12.30;99.90;;;;;;5035366;28;20132;-77
2022/06/17 10:19:56;;;;;;;2.08;1.85;;;12.30;99.90;;;;;;5027078;28;20044;-74
2022/06/17 10:22:41;;;;;;;1.40;1.00;;;12.20;99.90;;;;;;5021313;28;20041;-74
2022/06/17 10:25:49;;;;;;;3.38;0.90;;;12.20;99.90;;;;;;5029668;28;20034;-74
2022/06/17 10:28:28;;;;;;;2.08;1.17;;;12.10;99.90;;;;;;5029705;28;20094;-75
2022/06/17 10:31:03;;;;;;;2.63;1.27;;;12.10;99.90;;;;;;5030281;28;20036;-74
2022/06/17 10:33:34;;;;;;;1.10;0.80;;;12.10;99.90;;;;;;5030217;28;20033;-75
2022/06/17 10:36:04;;;;;;;1.60;1.00;;;12.00;99.90;;;;;;5029931;28;20514;-75
2022/06/17 10:38:46;;;;;;;2.13;1.13;;;11.90;99.90;;;;;;5032153;28;20043;-75
2022/06/17 10:41:15;;;;;;;3.47;1.08;;;11.90;99.90;;;;;;5045275;28;20090;-75
2022/06/17 10:43:48;;;;;;;2.92;1.85;;;11.90;99.90;;;;;;5036084;28;20028;-76
2022/06/17 10:46:22;;;;;;;2.65;1.38;;;11.90;99.90;;;;;;5042359;28;20033;-74
2022/06/17 10:48:55;;;;;;;3.20;1.25;;;11.80;99.90;;;;;;5031401;28;20085;-76
2022/06/17 10:51:23;;;;;;;2.03;1.00;;;11.80;99.90;;;;;;5035035;28;20054;-75
2022/06/17 10:53:56;;;;;;;9.23;1.63;;;11.70;99.90;;;;;;5036716;28;20826;-74
2022/06/17 10:56:36;;;;;;;1.63;1.10;;;11.60;99.90;;;;;;5033817;28;20028;-74
2022/06/17 10:59:08;;;;;;;1.75;1.20;;;11.60;99.90;;;;;;5031405;28;20033;-75
2022/06/17 11:01:58;;;;;;;3.60;2.80;;;11.50;99.90;;;;;;5038529;28;20024;-76
2022/06/17 11:04:30;;;;;;;4.28;3.33;;;11.50;99.90;;;;;;5045967;28;20497;-73
2022/06/17 11:07:19;;;;;;;4.18;3.33;;;11.60;99.90;;;;;;5038138;28;20033;-75
2022/06/17 11:10:15;;;;;;;5.00;4.10;;;11.60;99.90;;;;;;5032665;28;20434;-73
2022/06/17 11:12:56;;;;;;;6.47;3.08;;;11.60;99.90;;;;;;5005152;28;20041;-77
2022/06/17 11:15:34;;;;;;;6.13;3.10;;;11.60;99.90;;;;;;5020391;28;20052;-77
2022/06/17 11:18:32;;;;;;;6.80;3.53;;;11.50;99.90;;;;;;5031592;28;20491;-75
2022/06/17 11:21:11;;;;;;;5.53;2.95;;;11.40;99.90;;;;;;5033409;28;20037;-75
2022/06/17 11:23:47;;;;;;;5.15;3.80;;;11.30;99.90;;;;;;5033104;28;20033;-75
2022/06/17 11:26:22;;;;;;;5.07;3.05;;;11.30;99.90;;;;;;5043629;28;20156;-74
2022/06/17 11:28:55;;;;;;;5.25;3.50;;;11.30;99.90;;;;;;5029751;28;20580;-77
2022/06/17 11:31:22;;;;;;;8.13;4.43;;;11.30;99.90;;;;;;5031897;28;20079;-77
2022/06/17 11:33:56;;;;;;;6.18;4.05;;;11.20;99.90;;;;;;5029165;28;20055;-75
2022/06/17 11:36:37;;;;;;;5.30;3.65;;;11.20;99.90;;;;;;5031878;28;20475;-75
2022/06/17 11:39:30;;;;;;;10.20;5.25;;;11.10;99.90;;;;;;5031248;28;20044;-75
2022/06/17 11:41:59;;;;;;;6.95;4.85;;;11.00;99.90;;;;;;5032671;28;20497;-76
2022/06/17 11:44:27;;;;;;;7.00;4.82;;;11.00;99.90;;;;;;5032675;28;20040;-75
2022/06/17 11:47:01;;;;;;;10.95;7.88;;;10.90;99.90;;;;;;5030201;28;20072;-72
2022/06/17 11:49:37;;;;;;;15.00;10.57;;;10.80;99.90;;;;;;5030725;28;20039;-76
2022/06/17 11:52:08;;;;;;;10.23;7.90;;;10.70;99.90;;;;;;5048302;28;20037;-76
2022/06/17 11:54:48;;;;;;;12.60;8.52;;;10.60;99.90;;;;;;5032587;28;20033;-73
2022/06/17 11:57:18;;;;;;;13.15;8.98;;;10.50;99.90;;;;;;5032768;28;20017;-75
2022/06/17 11:59:50;;;;;;;11.88;8.75;;;10.50;99.90;;;;;;5029291;28;20036;-75
2022/06/17 12:02:18;;;;;;;14.82;8.30;;;10.50;99.90;;;;;;5033414;28;20064;-74
2022/06/17 12:04:55;;;;;;;13.55;7.47;;;10.40;99.90;;;;;;5031747;28;20117;-74
2022/06/17 12:07:31;;;;;;;10.40;5.65;;;10.40;99.90;;;;;;5029149;28;20087;-75
2022/06/17 12:10:13;;;;;;;;;;;10.40;99.90;;;;;;5034238;28;20040;-73
2022/06/17 12:12:41;;;;;;;5.43;3.20;;;10.50;99.90;;;;;;5037372;28;19997;-73
2022/06/17 12:15:32;;;;;;;7.70;4.30;;;10.60;99.90;;;;;;5036086;28;20045;-73
2022/06/17 12:18:03;;;;;;;6.47;3.38;;;10.60;99.90;;;;;;5032125;28;21625;-75
2022/06/17 12:21:02;;;;;;;3.75;2.70;;;10.70;99.90;;;;;;5037453;28;20112;-75
2022/06/17 12:23:54;;;;;;;4.13;2.75;;;10.70;99.90;;;;;;5048321;28;20097;-75
2022/06/17 12:26:35;;;;;;;5.07;2.40;;;10.80;99.90;;;;;;5058284;28;20033;-74
2022/06/17 12:29:17;;;;;;;5.43;3.28;;;10.80;99.90;;;;;;5053060;28;20372;-73
2022/06/17 12:31:55;;;;;;;5.18;3.10;;;10.90;99.90;;;;;;5044725;28;20032;-72
2022/06/17 12:34:44;;;;;;;5.22;2.40;;;10.80;99.90;;;;;;5046724;28;20121;-73
2022/06/17 12:37:17;;;;;;;4.32;2.58;;;10.80;99.90;;;;;;5038797;28;20132;-73
2022/06/17 12:40:06;;;;;;;4.22;2.00;;;10.70;99.90;;;;;;5029850;28;20073;-74
2022/06/17 12:42:45;;;;;;;2.33;1.60;;;10.70;99.90;;;;;;5029676;28;20030;-73
2022/06/17 12:45:22;;;;;;;3.70;1.80;;;10.70;99.90;;;;;;5039485;28;20613;-75
2022/06/17 12:47:56;;;;;;;2.95;1.55;;;10.70;99.90;;;;;;5038594;28;20580;-74
2022/06/17 12:53:51;;;;;;;2.97;1.60;;;10.70;99.90;;;;;;5035365;28;20135;-75
2022/06/17 12:56:54;;;;;;;2.53;1.15;;;10.70;99.90;;;;;;4998739;28;20072;-74
2022/06/17 12:59:38;;;;;;;3.03;2.05;;;10.70;99.90;;;;;;5030652;28;20053;-74
2022/06/17 13:02:16;;;;;;;2.55;1.73;;;10.70;99.90;;;;;;5028899;28;20033;-74
2022/06/17 13:05:04;;;;;;;3.10;2.13;;;10.70;99.90;;;;;;5028677;28;20024;-73
2022/06/17 13:07:56;;;;;;;4.07;1.85;;;10.70;99.90;;;;;;5039012;28;20498;-74
2022/06/17 13:10:42;;;;;;;3.80;2.20;;;10.60;99.90;;;;;;5030142;28;20029;-73
2022/06/17 13:13:25;;;;;;;4.10;2.33;;;10.60;99.90;;;;;;5028672;28;20045;-73
2022/06/17 13:15:57;;;;;;;6.03;2.42;;;10.50;99.90;;;;;;5027805;28;20037;-74
2022/06/17 13:18:56;;;;;;;5.50;2.50;;;10.50;99.90;;;;;;5030320;28;20786;-73
2022/06/17 13:21:38;;;;;;;4.90;3.08;;;10.40;99.90;;;;;;5047626;28;20060;-76
2022/06/17 13:24:26;;;;;;;4.43;2.85;;;10.40;99.90;;;;;;5048581;28;20036;-74
2022/06/17 13:27:11;;;;;;;7.07;4.32;;;10.20;99.90;;;;;;5036697;28;20365;-76
2022/06/17 13:29:53;;;;;;;6.85;4.60;;;10.20;99.90;;;;;;5057371;28;20029;-75
2022/06/17 13:32:43;;;;;;;6.95;4.75;;;10.00;99.90;;;;;;5038807;28;20044;-76
2022/06/17 13:35:31;;;;;;;7.40;5.88;;;10.00;99.90;;;;;;5022882;28;20454;-76
2022/06/17 13:38:33;;;;;;;9.65;7.28;;;10.00;99.90;;;;;;5025952;28;20478;-74
2022/06/17 13:41:41;;;;;;;8.15;6.43;;;9.90;99.90;;;;;;5026318;28;20033;-74
2022/06/17 13:44:35;;;;;;;10.02;7.28;;;9.80;99.90;;;;;;5038911;28;20091;-74
2022/06/17 13:47:11;;;;;;;7.47;4.20;;;9.70;99.90;;;;;;5027537;28;20028;-74